sensor_id;sensor_type;location;lat;lon;timestamp;pressure;altitude;pressure_sealevel;temperature;humidity
41690;BME280;27372;42.658;23.256;2023-04-28T00:01:23;93995.44;;;4.30;59.79
41690;BME280;27372;42.658;23.256;2023-04-28T00:03:49;94014.50;;;4.44;59.52
41690;BME280;27372;42.658;23.256;2023-04-28T00:06:14;93989.22;;;4.25;59.48
41690;BME280;27372;42.658;23.256;2023-04-28T00:08:40;94010.22;;;4.30;60.22
41690;BME280;27372;42.658;23.256;2023-04-28T00:11:09;93999.75;;;4.16;60.44
41690;BME280;27372;42.658;23.256;2023-04-28T00:13:35;94002.56;;;4.22;60.75
41690;BME280;27372;42.658;23.256;2023-04-28T00:16:00;94014.13;;;4.12;60.97
41690;BME280;27372;42.658;23.256;2023-04-28T00:18:26;94009.34;;;4.16;60.82
41690;BME280;27372;42.658;23.256;2023-04-28T00:20:51;93996.59;;;4.28;60.84
41690;BME280;27372;42.658;23.256;2023-04-28T00:23:17;93996.13;;;4.11;60.63
41690;BME280;27372;42.658;23.256;2023-04-28T00:25:42;93999.78;;;4.23;60.74
41690;BME280;27372;42.658;23.256;2023-04-28T00:28:07;93992.91;;;4.09;61.11
41690;BME280;27372;42.658;23.256;2023-04-28T00:30:33;93996.50;;;4.08;60.61
41690;BME280;27372;42.658;23.256;2023-04-28T00:32:58;94000.50;;;4.10;60.77
41690;BME280;27372;42.658;23.256;2023-04-28T00:35:24;94004.28;;;4.08;61.42
41690;BME280;27372;42.658;23.256;2023-04-28T00:37:49;94009.34;;;4.16;61.02
41690;BME280;27372;42.658;23.256;2023-04-28T00:40:14;94014.28;;;4.04;60.92
41690;BME280;27372;42.658;23.256;2023-04-28T00:42:41;94020.09;;;4.06;61.44
41690;BME280;27372;42.658;23.256;2023-04-28T00:45:06;94019.28;;;4.06;61.82
41690;BME280;27372;42.658;23.256;2023-04-28T00:47:33;94024.31;;;4.14;61.18
41690;BME280;27372;42.658;23.256;2023-04-28T00:50:00;94024.38;;;4.20;60.55
41690;BME280;27372;42.658;23.256;2023-04-28T00:52:26;94037.66;;;4.04;61.18
41690;BME280;27372;42.658;23.256;2023-04-28T00:54:52;94033.47;;;4.03;60.69
41690;BME280;27372;42.658;23.256;2023-04-28T00:57:18;94014.59;;;3.94;61.68
41690;BME280;27372;42.658;23.256;2023-04-28T00:59:43;94018.88;;;3.80;61.80
41690;BME280;27372;42.658;23.256;2023-04-28T01:02:09;94027.72;;;3.86;62.47
41690;BME280;27372;42.658;23.256;2023-04-28T01:04:42;94036.63;;;3.98;61.14
41690;BME280;27372;42.658;23.256;2023-04-28T01:07:08;94021.13;;;3.83;60.85
41690;BME280;27372;42.658;23.256;2023-04-28T01:09:33;94019.72;;;3.81;60.38
41690;BME280;27372;42.658;23.256;2023-04-28T01:11:58;94027.78;;;3.93;59.66
41690;BME280;27372;42.658;23.256;2023-04-28T01:14:24;94025.09;;;4.08;59.80
41690;BME280;27372;42.658;23.256;2023-04-28T01:16:50;94035.38;;;3.94;60.16
41690;BME280;27372;42.658;23.256;2023-04-28T01:19:24;94031.16;;;3.93;59.57
41690;BME280;27372;42.658;23.256;2023-04-28T01:21:50;94032.28;;;4.06;59.87
41690;BME280;27372;42.658;23.256;2023-04-28T01:24:16;94031.06;;;4.08;58.80
41690;BME280;27372;42.658;23.256;2023-04-28T01:26:41;94023.38;;;3.93;59.32
41690;BME280;27372;42.658;23.256;2023-04-28T01:29:07;94034.91;;;4.12;59.32
41690;BME280;27372;42.658;23.256;2023-04-28T01:31:32;94037.75;;;4.17;58.52
41690;BME280;27372;42.658;23.256;2023-04-28T01:33:58;94035.28;;;4.09;59.28
41690;BME280;27372;42.658;23.256;2023-04-28T01:36:24;94035.84;;;4.04;58.83
41690;BME280;27372;42.658;23.256;2023-04-28T01:38:51;94031.84;;;4.02;58.04
41690;BME280;27372;42.658;23.256;2023-04-28T01:41:16;94026.09;;;4.07;58.53
41690;BME280;27372;42.658;23.256;2023-04-28T01:43:42;94030.34;;;4.14;57.85
41690;BME280;27372;42.658;23.256;2023-04-28T01:46:08;94034.91;;;4.12;57.96
41690;BME280;27372;42.658;23.256;2023-04-28T01:48:34;94033.31;;;4.11;58.35
41690;BME280;27372;42.658;23.256;2023-04-28T01:50:59;94023.25;;;4.01;58.94
41690;BME280;27372;42.658;23.256;2023-04-28T01:53:24;94038.56;;;4.18;58.72
41690;BME280;27372;42.658;23.256;2023-04-28T01:55:50;94027.38;;;3.89;59.31
41690;BME280;27372;42.658;23.256;2023-04-28T01:58:15;94034.91;;;4.12;58.69
41690;BME280;27372;42.658;23.256;2023-04-28T02:00:41;94030.66;;;4.04;59.37
41690;BME280;27372;42.658;23.256;2023-04-28T02:03:06;94030.66;;;4.04;59.47
41690;BME280;27372;42.658;23.256;2023-04-28T02:05:32;94044.16;;;3.93;60.09
41690;BME280;27372;42.658;23.256;2023-04-28T02:07:57;94028.34;;;3.88;60.56
41690;BME280;27372;42.658;23.256;2023-04-28T02:10:22;94045.44;;;3.76;60.98
41690;BME280;27372;42.658;23.256;2023-04-28T02:12:48;94039.94;;;3.85;60.53
41690;BME280;27372;42.658;23.256;2023-04-28T02:15:13;94040.50;;;3.81;60.89
41690;BME280;27372;42.658;23.256;2023-04-28T02:17:39;94039.44;;;3.75;60.75
41690;BME280;27372;42.658;23.256;2023-04-28T02:20:06;94045.00;;;3.72;61.31
41690;BME280;27372;42.658;23.256;2023-04-28T02:22:31;94045.72;;;3.87;60.77
41690;BME280;27372;42.658;23.256;2023-04-28T02:24:57;94037.97;;;3.66;60.91
41690;BME280;27372;42.658;23.256;2023-04-28T02:27:22;94050.81;;;3.96;60.27
41690;BME280;27372;42.658;23.256;2023-04-28T02:29:48;94049.19;;;3.95;60.30
41690;BME280;27372;42.658;23.256;2023-04-28T02:32:16;94049.72;;;3.62;61.71
41690;BME280;27372;42.658;23.256;2023-04-28T02:34:41;94060.53;;;3.87;60.65
41690;BME280;27372;42.658;23.256;2023-04-28T02:37:06;94063.81;;;3.96;60.78
41690;BME280;27372;42.658;23.256;2023-04-28T02:39:32;94054.53;;;3.86;61.03
41690;BME280;27372;42.658;23.256;2023-04-28T02:41:57;94051.25;;;3.78;60.59
41690;BME280;27372;42.658;23.256;2023-04-28T02:44:23;94059.25;;;3.76;60.89
41690;BME280;27372;42.658;23.256;2023-04-28T02:46:48;94062.81;;;3.75;60.88
41690;BME280;27372;42.658;23.256;2023-04-28T02:49:14;94075.38;;;3.71;61.12
41690;BME280;27372;42.658;23.256;2023-04-28T02:51:40;94071.13;;;3.85;60.28
41690;BME280;27372;42.658;23.256;2023-04-28T02:54:05;94055.75;;;3.69;61.01
41690;BME280;27372;42.658;23.256;2023-04-28T02:56:31;94058.78;;;3.72;60.17
41690;BME280;27372;42.658;23.256;2023-04-28T02:58:57;94071.25;;;3.55;60.62
41690;BME280;27372;42.658;23.256;2023-04-28T03:01:23;94068.16;;;3.45;61.05
41690;BME280;27372;42.658;23.256;2023-04-28T03:03:48;94079.91;;;3.63;61.22
41690;BME280;27372;42.658;23.256;2023-04-28T03:06:13;94080.78;;;3.33;61.82
41690;BME280;27372;42.658;23.256;2023-04-28T03:08:39;94075.94;;;3.45;60.96
41690;BME280;27372;42.658;23.256;2023-04-28T03:11:04;94074.00;;;3.54;61.08
41690;BME280;27372;42.658;23.256;2023-04-28T03:13:30;94068.31;;;3.44;60.73
41690;BME280;27372;42.658;23.256;2023-04-28T03:15:55;94076.25;;;3.57;61.35
41690;BME280;27372;42.658;23.256;2023-04-28T03:18:21;94072.88;;;3.41;61.50
41690;BME280;27372;42.658;23.256;2023-04-28T03:20:47;94082.72;;;3.46;60.82
41690;BME280;27372;42.658;23.256;2023-04-28T03:23:12;94086.00;;;3.33;61.92
41690;BME280;27372;42.658;23.256;2023-04-28T03:25:41;94075.78;;;3.32;61.41
41690;BME280;27372;42.658;23.256;2023-04-28T03:28:06;94101.16;;;3.51;61.27
41690;BME280;27372;42.658;23.256;2023-04-28T03:30:32;94086.41;;;3.37;60.83
41690;BME280;27372;42.658;23.256;2023-04-28T03:32:57;94094.53;;;3.27;61.78
41690;BME280;27372;42.658;23.256;2023-04-28T03:35:23;94099.56;;;3.14;61.23
41690;BME280;27372;42.658;23.256;2023-04-28T03:37:48;94103.72;;;3.30;60.96
41690;BME280;27372;42.658;23.256;2023-04-28T03:40:14;94115.44;;;3.40;60.99
41690;BME280;27372;42.658;23.256;2023-04-28T03:42:39;94111.25;;;3.39;61.44
41690;BME280;27372;42.658;23.256;2023-04-28T03:45:06;94103.72;;;3.30;60.55
41690;BME280;27372;42.658;23.256;2023-04-28T03:47:31;94100.03;;;3.39;60.18
41690;BME280;27372;42.658;23.256;2023-04-28T03:49:57;94114.25;;;3.43;59.88
41690;BME280;27372;42.658;23.256;2023-04-28T03:52:23;94109.00;;;3.36;60.76
41690;BME280;27372;42.658;23.256;2023-04-28T03:54:48;94107.50;;;3.27;60.26
41690;BME280;27372;42.658;23.256;2023-04-28T03:57:14;94131.94;;;3.33;60.35
41690;BME280;27372;42.658;23.256;2023-04-28T03:59:39;94131.81;;;3.41;58.97
41690;BME280;27372;42.658;23.256;2023-04-28T04:02:05;94140.56;;;3.55;59.15
41690;BME280;27372;42.658;23.256;2023-04-28T04:04:30;94121.63;;;3.39;59.97
41690;BME280;27372;42.658;23.256;2023-04-28T04:06:56;94136.69;;;3.29;61.33
41690;BME280;27372;42.658;23.256;2023-04-28T04:09:21;94136.66;;;4.94;85.45
41690;BME280;27372;42.658;23.256;2023-04-28T04:11:47;94144.34;;;5.03;66.42
41690;BME280;27372;42.658;23.256;2023-04-28T04:14:12;94146.13;;;4.39;59.97
41690;BME280;27372;42.658;23.256;2023-04-28T04:16:38;94147.31;;;4.14;59.63
41690;BME280;27372;42.658;23.256;2023-04-28T04:19:03;94141.94;;;3.94;59.63
41690;BME280;27372;42.658;23.256;2023-04-28T04:21:29;94140.09;;;3.88;60.82
41690;BME280;27372;42.658;23.256;2023-04-28T04:23:55;94146.22;;;3.80;61.77
41690;BME280;27372;42.658;23.256;2023-04-28T04:26:21;94156.91;;;3.92;61.28
41690;BME280;27372;42.658;23.256;2023-04-28T04:28:47;94162.38;;;3.97;60.63
41690;BME280;27372;42.658;23.256;2023-04-28T04:31:14;94161.59;;;3.82;62.13
41690;BME280;27372;42.658;23.256;2023-04-28T04:33:39;94168.31;;;3.91;61.97
41690;BME280;27372;42.658;23.256;2023-04-28T04:36:05;94165.19;;;4.02;61.69
41690;BME280;27372;42.658;23.256;2023-04-28T04:38:31;94167.25;;;4.07;61.92
41690;BME280;27372;42.658;23.256;2023-04-28T04:40:56;94167.00;;;4.24;61.40
41690;BME280;27372;42.658;23.256;2023-04-28T04:43:22;94159.44;;;4.07;61.40
41690;BME280;27372;42.658;23.256;2023-04-28T04:45:49;94153.22;;;4.01;61.62
41690;BME280;27372;42.658;23.256;2023-04-28T04:48:14;94162.94;;;4.14;61.06
41690;BME280;27372;42.658;23.256;2023-04-28T04:50:41;94177.41;;;4.24;61.18
41690;BME280;27372;42.658;23.256;2023-04-28T04:53:06;94184.44;;;4.30;61.36
41690;BME280;27372;42.658;23.256;2023-04-28T04:55:32;94185.13;;;4.39;61.00
41690;BME280;27372;42.658;23.256;2023-04-28T04:57:58;94188.88;;;4.58;60.32
41690;BME280;27372;42.658;23.256;2023-04-28T05:00:23;94188.81;;;4.79;59.84
41690;BME280;27372;42.658;23.256;2023-04-28T05:02:53;94194.28;;;4.85;60.31
41690;BME280;27372;42.658;23.256;2023-04-28T05:05:19;94192.66;;;4.84;60.84
41690;BME280;27372;42.658;23.256;2023-04-28T05:07:45;94187.97;;;5.01;60.19
41690;BME280;27372;42.658;23.256;2023-04-28T05:10:10;94189.97;;;5.40;58.61
41690;BME280;27372;42.658;23.256;2023-04-28T05:12:36;94200.25;;;5.49;57.54
41690;BME280;27372;42.658;23.256;2023-04-28T05:15:04;94191.88;;;4.83;59.58
41690;BME280;27372;42.658;23.256;2023-04-28T05:17:31;94193.88;;;5.23;58.92
41690;BME280;27372;42.658;23.256;2023-04-28T05:19:57;94200.25;;;5.49;58.74
41690;BME280;27372;42.658;23.256;2023-04-28T05:22:23;94191.22;;;5.51;57.46
41690;BME280;27372;42.658;23.256;2023-04-28T05:24:50;94197.78;;;5.40;58.41
41690;BME280;27372;42.658;23.256;2023-04-28T05:27:15;94194.06;;;5.15;59.45
41690;BME280;27372;42.658;23.256;2023-04-28T05:29:42;94200.16;;;5.35;58.35
41690;BME280;27372;42.658;23.256;2023-04-28T05:32:07;94186.25;;;5.63;57.21
41690;BME280;27372;42.658;23.256;2023-04-28T05:34:32;94196.16;;;5.39;58.04
41690;BME280;27372;42.658;23.256;2023-04-28T05:36:59;94184.16;;;5.38;57.51
41690;BME280;27372;42.658;23.256;2023-04-28T05:39:26;94186.56;;;5.40;58.61
41690;BME280;27372;42.658;23.256;2023-04-28T05:41:52;94184.50;;;5.84;58.12
41690;BME280;27372;42.658;23.256;2023-04-28T05:44:19;94181.72;;;5.92;57.11
41690;BME280;27372;42.658;23.256;2023-04-28T05:46:44;94188.59;;;6.00;56.73
41690;BME280;27372;42.658;23.256;2023-04-28T05:49:10;94187.34;;;5.96;55.37
41690;BME280;27372;42.658;23.256;2023-04-28T05:51:36;94189.66;;;5.57;55.16
41690;BME280;27372;42.658;23.256;2023-04-28T05:54:02;94200.72;;;5.72;55.12
41690;BME280;27372;42.658;23.256;2023-04-28T05:56:28;94191.19;;;6.00;54.88
41690;BME280;27372;42.658;23.256;2023-04-28T05:58:53;94182.41;;;6.28;52.94
41690;BME280;27372;42.658;23.256;2023-04-28T06:01:21;94192.47;;;6.37;52.51
41690;BME280;27372;42.658;23.256;2023-04-28T06:03:47;94197.50;;;6.52;51.84
41690;BME280;27372;42.658;23.256;2023-04-28T06:06:12;94198.34;;;5.91;52.62
41690;BME280;27372;42.658;23.256;2023-04-28T06:08:38;94204.38;;;5.85;52.82
41690;BME280;27372;42.658;23.256;2023-04-28T06:11:04;94196.63;;;6.12;53.51
41690;BME280;27372;42.658;23.256;2023-04-28T06:13:31;94193.47;;;6.50;51.94
41690;BME280;27372;42.658;23.256;2023-04-28T06:15:58;94184.44;;;6.46;51.78
41690;BME280;27372;42.658;23.256;2023-04-28T06:18:23;94199.47;;;6.17;51.59
41690;BME280;27372;42.658;23.256;2023-04-28T06:20:49;94194.25;;;6.37;50.81
41690;BME280;27372;42.658;23.256;2023-04-28T06:23:14;94189.22;;;6.22;49.95
41690;BME280;27372;42.658;23.256;2023-04-28T06:25:41;94198.47;;;6.45;51.14
41690;BME280;27372;42.658;23.256;2023-04-28T06:28:06;94190.84;;;6.23;52.26
41690;BME280;27372;42.658;23.256;2023-04-28T06:30:33;94188.22;;;6.03;52.91
41690;BME280;27372;42.658;23.256;2023-04-28T06:32:58;94194.69;;;6.41;52.37
41690;BME280;27372;42.658;23.256;2023-04-28T06:35:25;94197.88;;;6.56;51.77
41690;BME280;27372;42.658;23.256;2023-04-28T06:37:52;94190.06;;;6.70;51.09
41690;BME280;27372;42.658;23.256;2023-04-28T06:40:20;94198.50;;;6.58;50.75
41690;BME280;27372;42.658;23.256;2023-04-28T06:42:47;94187.19;;;7.05;50.75
41690;BME280;27372;42.658;23.256;2023-04-28T06:45:15;94191.97;;;7.28;50.71
41690;BME280;27372;42.658;23.256;2023-04-28T06:47:46;94187.28;;;7.50;48.45
41690;BME280;27372;42.658;23.256;2023-04-28T06:50:11;94184.56;;;7.77;47.51
41690;BME280;27372;42.658;23.256;2023-04-28T06:52:44;94182.31;;;7.35;47.78
41690;BME280;27372;42.658;23.256;2023-04-28T06:55:19;94188.25;;;7.63;50.18
41690;BME280;27372;42.658;23.256;2023-04-28T06:57:45;94177.44;;;7.91;48.58
41690;BME280;27372;42.658;23.256;2023-04-28T07:00:13;94173.03;;;7.91;48.85
41690;BME280;27372;42.658;23.256;2023-04-28T07:02:40;94188.88;;;7.97;47.05
41690;BME280;27372;42.658;23.256;2023-04-28T07:05:07;94193.09;;;7.98;46.16
41690;BME280;27372;42.658;23.256;2023-04-28T07:07:35;94187.72;;;7.92;47.52
41690;BME280;27372;42.658;23.256;2023-04-28T07:10:04;94186.66;;;7.61;48.05
41690;BME280;27372;42.658;23.256;2023-04-28T07:12:31;94189.31;;;8.26;45.99
41690;BME280;27372;42.658;23.256;2023-04-28T07:14:58;94187.31;;;8.60;44.37
41690;BME280;27372;42.658;23.256;2023-04-28T07:17:24;94182.41;;;8.38;43.77
41690;BME280;27372;42.658;23.256;2023-04-28T07:19:50;94177.88;;;8.20;44.64
41690;BME280;27372;42.658;23.256;2023-04-28T07:22:16;94187.06;;;8.86;43.49
41690;BME280;27372;42.658;23.256;2023-04-28T07:24:47;94178.03;;;9.08;44.02
41690;BME280;27372;42.658;23.256;2023-04-28T07:27:12;94189.16;;;9.03;43.29
41690;BME280;27372;42.658;23.256;2023-04-28T07:29:38;94166.41;;;8.78;43.97
41690;BME280;27372;42.658;23.256;2023-04-28T07:32:04;94170.22;;;8.82;44.48
41690;BME280;27372;42.658;23.256;2023-04-28T07:34:34;94163.03;;;9.52;44.08
41690;BME280;27372;42.658;23.256;2023-04-28T07:37:01;94182.28;;;10.25;41.89
41690;BME280;27372;42.658;23.256;2023-04-28T07:39:27;94180.97;;;10.04;42.76
41690;BME280;27372;42.658;23.256;2023-04-28T07:41:52;94169.66;;;10.04;40.77
41690;BME280;27372;42.658;23.256;2023-04-28T07:44:18;94157.28;;;10.23;42.14
41690;BME280;27372;42.658;23.256;2023-04-28T07:46:43;94160.03;;;10.82;40.91
41690;BME280;27372;42.658;23.256;2023-04-28T07:49:09;94160.47;;;11.15;40.62
41690;BME280;27372;42.658;23.256;2023-04-28T07:51:41;94174.28;;;11.46;38.86
41690;BME280;27372;42.658;23.256;2023-04-28T07:54:06;94170.16;;;11.38;39.64
41690;BME280;27372;42.658;23.256;2023-04-28T07:56:32;94166.09;;;11.07;38.87
41690;BME280;27372;42.658;23.256;2023-04-28T07:58:57;94161.63;;;11.19;38.41
41690;BME280;27372;42.658;23.256;2023-04-28T08:01:22;94157.03;;;11.79;36.85
41690;BME280;27372;42.658;23.256;2023-04-28T08:03:48;94165.03;;;11.84;37.55
41690;BME280;27372;42.658;23.256;2023-04-28T08:06:17;94157.03;;;11.79;38.18
41690;BME280;27372;42.658;23.256;2023-04-28T08:08:43;94160.22;;;11.81;37.54
41690;BME280;27372;42.658;23.256;2023-04-28T08:11:10;94160.53;;;11.96;37.63
41690;BME280;27372;42.658;23.256;2023-04-28T08:14:04;94163.53;;;12.80;36.22
41690;BME280;27372;42.658;23.256;2023-04-28T08:16:51;94170.22;;;12.54;35.81
41690;BME280;27372;42.658;23.256;2023-04-28T08:19:21;94163.44;;;12.75;36.07
41690;BME280;27372;42.658;23.256;2023-04-28T08:21:49;94167.66;;;12.42;35.86
41690;BME280;27372;42.658;23.256;2023-04-28T08:24:16;94163.91;;;13.06;35.09
41690;BME280;27372;42.658;23.256;2023-04-28T08:26:44;94163.44;;;12.75;36.18
41690;BME280;27372;42.658;23.256;2023-04-28T08:29:20;94161.66;;;12.30;37.02
41690;BME280;27372;42.658;23.256;2023-04-28T08:31:48;94158.16;;;12.58;35.38
41690;BME280;27372;42.658;23.256;2023-04-28T08:34:15;94149.56;;;12.46;36.60
41690;BME280;27372;42.658;23.256;2023-04-28T08:36:40;94160.41;;;12.49;35.32
41690;BME280;27372;42.658;23.256;2023-04-28T08:39:06;94162.97;;;12.78;34.80
41690;BME280;27372;42.658;23.256;2023-04-28T08:41:33;94168.00;;;13.53;34.04
41690;BME280;27372;42.658;23.256;2023-04-28T08:44:07;94163.53;;;12.80;34.36
41690;BME280;27372;42.658;23.256;2023-04-28T08:46:33;94151.47;;;13.41;35.61
41690;BME280;27372;42.658;23.256;2023-04-28T08:49:00;94147.44;;;13.77;34.05
41690;BME280;27372;42.658;23.256;2023-04-28T08:51:33;94150.75;;;14.17;34.19
41690;BME280;27372;42.658;23.256;2023-04-28T08:54:01;94146.81;;;14.47;33.12
41690;BME280;27372;42.658;23.256;2023-04-28T08:56:32;94128.16;;;14.97;32.04
41690;BME280;27372;42.658;23.256;2023-04-28T08:59:01;94132.75;;;15.12;33.30
41690;BME280;27372;42.658;23.256;2023-04-28T09:01:28;94134.09;;;15.73;30.48
41690;BME280;27372;42.658;23.256;2023-04-28T09:03:55;94136.16;;;14.37;33.03
41690;BME280;27372;42.658;23.256;2023-04-28T09:06:20;94145.28;;;14.56;32.01
41690;BME280;27372;42.658;23.256;2023-04-28T09:08:47;94147.34;;;13.94;33.75
41690;BME280;27372;42.658;23.256;2023-04-28T09:11:12;94140.63;;;15.01;32.23
41690;BME280;27372;42.658;23.256;2023-04-28T09:13:39;94132.75;;;15.12;31.86
41690;BME280;27372;42.658;23.256;2023-04-28T09:16:05;94129.81;;;15.61;31.66
41690;BME280;27372;42.658;23.256;2023-04-28T09:18:31;94127.34;;;16.18;30.64
41690;BME280;27372;42.658;23.256;2023-04-28T09:23:29;94119.69;;;15.48;31.58
41690;BME280;27372;42.658;23.256;2023-04-28T09:26:05;94117.31;;;16.30;31.06
41690;BME280;27372;42.658;23.256;2023-04-28T09:28:35;94126.34;;;16.81;29.84
41690;BME280;27372;42.658;23.256;2023-04-28T09:31:01;94127.13;;;16.30;30.17
41690;BME280;27372;42.658;23.256;2023-04-28T09:33:26;94115.72;;;17.12;28.45
41690;BME280;27372;42.658;23.256;2023-04-28T09:35:52;94114.91;;;16.13;30.03
41690;BME280;27372;42.658;23.256;2023-04-28T09:38:19;94112.56;;;16.74;29.18
41690;BME280;27372;42.658;23.256;2023-04-28T09:40:58;94114.09;;;17.27;27.05
41690;BME280;27372;42.658;23.256;2023-04-28T09:43:29;94108.00;;;15.92;30.43
41690;BME280;27372;42.658;23.256;2023-04-28T09:45:57;94103.03;;;16.37;30.25
41690;BME280;27372;42.658;23.256;2023-04-28T09:48:32;94111.75;;;17.04;29.34
41690;BME280;27372;42.658;23.256;2023-04-28T09:51:02;94110.16;;;16.98;28.19
41690;BME280;27372;42.658;23.256;2023-04-28T09:53:28;94101.66;;;18.33;27.15
41690;BME280;27372;42.658;23.256;2023-04-28T09:55:56;94075.63;;;18.29;28.16
41690;BME280;27372;42.658;23.256;2023-04-28T09:58:25;94102.66;;;18.02;28.94
41690;BME280;27372;42.658;23.256;2023-04-28T10:00:53;94092.91;;;19.01;25.86
41690;BME280;27372;42.658;23.256;2023-04-28T10:03:29;94081.81;;;18.20;27.58
41690;BME280;27372;42.658;23.256;2023-04-28T10:05:58;94062.94;;;18.21;26.98
41690;BME280;27372;42.658;23.256;2023-04-28T10:08:24;94083.66;;;19.42;26.16
41690;BME280;27372;42.658;23.256;2023-04-28T10:10:51;94068.50;;;20.05;24.61
41690;BME280;27372;42.658;23.256;2023-04-28T10:13:24;94070.88;;;19.20;25.46
41690;BME280;27372;42.658;23.256;2023-04-28T10:15:52;94078.59;;;18.57;25.02
41690;BME280;27372;42.658;23.256;2023-04-28T10:18:21;94085.63;;;18.08;26.06
41690;BME280;27372;42.658;23.256;2023-04-28T10:20:48;94071.16;;;18.25;26.16
41690;BME280;27372;42.658;23.256;2023-04-28T10:26:09;94073.34;;;20.22;24.47
41690;BME280;27372;42.658;23.256;2023-04-28T10:28:35;94070.84;;;21.25;22.82
41690;BME280;27372;42.658;23.256;2023-04-28T10:31:11;94058.97;;;21.17;22.97
41690;BME280;27372;42.658;23.256;2023-04-28T10:33:37;94054.63;;;21.35;23.24
41690;BME280;27372;42.658;23.256;2023-04-28T10:36:04;94053.13;;;20.54;23.21
41690;BME280;27372;42.658;23.256;2023-04-28T10:38:30;94055.50;;;20.70;24.31
41690;BME280;27372;42.658;23.256;2023-04-28T10:40:55;94040.47;;;21.07;23.27
41690;BME280;27372;42.658;23.256;2023-04-28T10:56:15;94031.50;;;19.79;23.62
41690;BME280;27372;42.658;23.256;2023-04-28T10:58:47;94027.56;;;19.33;23.05
41690;BME280;27372;42.658;23.256;2023-04-28T11:01:30;94023.34;;;20.94;22.30
41690;BME280;27372;42.658;23.256;2023-04-28T11:06:25;94032.03;;;18.89;22.74
41690;BME280;27372;42.658;23.256;2023-04-28T11:08:53;94021.78;;;21.07;22.00
41690;BME280;27372;42.658;23.256;2023-04-28T11:19:35;94014.28;;;21.09;22.06
41690;BME280;27372;42.658;23.256;2023-04-28T11:22:12;94012.28;;;22.07;21.14
41690;BME280;27372;42.658;23.256;2023-04-28T11:24:38;94013.09;;;21.43;21.32
41690;BME280;27372;42.658;23.256;2023-04-28T11:27:03;94013.59;;;20.23;23.15
41690;BME280;27372;42.658;23.256;2023-04-28T11:29:36;94014.38;;;21.04;22.91
41690;BME280;27372;42.658;23.256;2023-04-28T11:32:06;94016.41;;;21.77;22.03
41690;BME280;27372;42.658;23.256;2023-04-28T11:34:33;94009.97;;;23.23;20.63
41690;BME280;27372;42.658;23.256;2023-04-28T11:36:58;94007.59;;;23.30;20.42
41690;BME280;27372;42.658;23.256;2023-04-28T11:39:29;93989.91;;;22.26;21.07
41690;BME280;27372;42.658;23.256;2023-04-28T11:41:55;93995.78;;;20.52;23.41
41690;BME280;27372;42.658;23.256;2023-04-28T11:44:23;94001.69;;;21.65;21.48
41690;BME280;27372;42.658;23.256;2023-04-28T11:46:54;93995.81;;;22.59;21.13
41690;BME280;27372;42.658;23.256;2023-04-28T11:49:24;93997.63;;;23.80;19.69
41690;BME280;27372;42.658;23.256;2023-04-28T11:51:50;93991.47;;;24.41;19.27
41690;BME280;27372;42.658;23.256;2023-04-28T11:54:24;94003.97;;;22.94;18.79
41690;BME280;27372;42.658;23.256;2023-04-28T11:56:51;93994.91;;;21.31;20.94
41690;BME280;27372;42.658;23.256;2023-04-28T11:59:17;93997.72;;;23.39;19.51
41690;BME280;27372;42.658;23.256;2023-04-28T12:04:11;93991.59;;;24.53;19.33
41690;BME280;27372;42.658;23.256;2023-04-28T12:06:37;94001.53;;;25.18;18.02
41690;BME280;27372;42.658;23.256;2023-04-28T12:09:17;93981.06;;;26.07;17.67
41690;BME280;27372;42.658;23.256;2023-04-28T12:12:13;93990.44;;;26.00;18.58
41690;BME280;27372;42.658;23.256;2023-04-28T12:19:49;93963.88;;;25.99;17.72
41690;BME280;27372;42.658;23.256;2023-04-28T12:22:14;93961.94;;;25.87;18.63
41690;BME280;27372;42.658;23.256;2023-04-28T12:24:41;93967.03;;;23.54;18.46
41690;BME280;27372;42.658;23.256;2023-04-28T12:27:20;93959.59;;;23.51;18.17
41690;BME280;27372;42.658;23.256;2023-04-28T12:29:57;93945.84;;;22.00;19.48
41690;BME280;27372;42.658;23.256;2023-04-28T12:32:39;93963.38;;;21.56;21.58
41690;BME280;27372;42.658;23.256;2023-04-28T12:35:05;93963.84;;;23.44;19.40
41690;BME280;27372;42.658;23.256;2023-04-28T12:37:31;93953.19;;;23.12;18.71
41690;BME280;27372;42.658;23.256;2023-04-28T12:39:57;93963.31;;;23.24;19.68
41690;BME280;27372;42.658;23.256;2023-04-28T12:42:22;93949.91;;;21.75;21.13
41690;BME280;27372;42.658;23.256;2023-04-28T12:44:48;93961.63;;;22.33;20.70
41690;BME280;27372;42.658;23.256;2023-04-28T12:47:15;93957.16;;;19.83;23.29
41690;BME280;27372;42.658;23.256;2023-04-28T12:49:42;93956.38;;;19.63;22.33
41690;BME280;27372;42.658;23.256;2023-04-28T12:52:07;93952.69;;;20.30;23.35
41690;BME280;27372;42.658;23.256;2023-04-28T12:54:33;93949.38;;;20.20;23.23
41690;BME280;27372;42.658;23.256;2023-04-28T12:56:58;93944.25;;;21.26;22.88
41690;BME280;27372;42.658;23.256;2023-04-28T12:59:24;93934.25;;;22.59;20.79
41690;BME280;27372;42.658;23.256;2023-04-28T13:01:49;93933.38;;;20.67;22.55
41690;BME280;27372;42.658;23.256;2023-04-28T13:04:18;93936.47;;;19.75;23.47
41690;BME280;27372;42.658;23.256;2023-04-28T13:06:43;93937.16;;;19.47;23.32
41690;BME280;27372;42.658;23.256;2023-04-28T13:09:10;93920.09;;;19.29;24.53
41690;BME280;27372;42.658;23.256;2023-04-28T13:11:36;93921.09;;;20.52;22.40
41690;BME280;27372;42.658;23.256;2023-04-28T13:14:01;93923.88;;;22.35;22.43
41690;BME280;27372;42.658;23.256;2023-04-28T13:16:28;93919.06;;;22.23;21.40
41690;BME280;27372;42.658;23.256;2023-04-28T13:18:55;93927.66;;;22.65;19.80
41690;BME280;27372;42.658;23.256;2023-04-28T13:21:22;93918.69;;;21.48;21.26
41690;BME280;27372;42.658;23.256;2023-04-28T13:23:49;93904.78;;;22.51;20.25
41690;BME280;27372;42.658;23.256;2023-04-28T13:26:15;93907.44;;;23.49;20.13
41690;BME280;27372;42.658;23.256;2023-04-28T13:28:44;93917.34;;;21.73;21.28
41690;BME280;27372;42.658;23.256;2023-04-28T13:31:09;93913.97;;;22.36;21.39